createdAt,value
2019-04-21T00:00:35.330Z,69.10
2019-04-21T00:03:09.930Z,69.60
2019-04-21T00:05:58.731Z,69.50
2019-04-21T00:08:30.549Z,70.00
2019-04-21T00:11:02.999Z,70.10
2019-04-21T00:13:24.893Z,70.90
2019-04-21T00:15:48.729Z,70.30
2019-04-21T00:18:39.721Z,70.80
2019-04-21T00:21:12.165Z,71.00
2019-04-21T00:23:49.627Z,71.50
2019-04-21T00:26:24.038Z,71.20
2019-04-21T00:28:59.570Z,71.10
2019-04-21T00:31:24.661Z,71.40
2019-04-21T00:33:39.854Z,71.80
2019-04-21T00:36:14.869Z,71.40
2019-04-21T00:39:06.849Z,71.60
2019-04-21T00:41:29.672Z,72.40
2019-04-21T00:43:56.017Z,73.10
2019-04-21T00:46:27.970Z,72.90
2019-04-21T00:49:03.121Z,74.00
2019-04-21T00:51:49.796Z,73.60
2019-04-21T00:54:18.471Z,73.70
2019-04-21T00:56:49.513Z,74.30
2019-04-21T00:59:15.125Z,74.40
2019-04-21T01:01:44.687Z,73.80
2019-04-21T01:04:17.742Z,73.60
2019-04-21T01:06:53.123Z,73.70
2019-04-21T01:09:13.808Z,74.30
2019-04-21T01:11:49.540Z,75.00
2019-04-21T01:14:32.819Z,75.20
2019-04-21T01:16:51.354Z,75.30
2019-04-21T01:19:23.808Z,75.70
2019-04-21T01:21:34.242Z,76.20
2019-04-21T01:24:11.842Z,77.00
2019-04-21T01:26:53.698Z,76.20
2019-04-21T01:29:37.208Z,77.40
2019-04-21T01:32:13.240Z,77.80
2019-04-21T01:34:39.334Z,78.10
2019-04-21T01:37:05.687Z,78.90
2019-04-21T01:39:42.704Z,79.10
2019-04-21T01:42:10.321Z,79.90
2019-04-21T01:44:44.477Z,79.60
2019-04-21T01:47:08.621Z,79.80
2019-04-21T01:49:34.496Z,79.90
2019-04-21T01:52:38.272Z,80.30
2019-04-21T01:55:00.181Z,80.10
2019-04-21T01:57:29.647Z,80.30
2019-04-21T01:59:54.874Z,79.90
2019-04-21T02:02:41.467Z,80.40
2019-04-21T02:05:10.499Z,80.60
2019-04-21T02:07:41.467Z,80.90
2019-04-21T02:10:12.811Z,81.50
2019-04-21T02:12:42.704Z,81.60
2019-04-21T02:15:20.091Z,82.20
2019-04-21T02:17:45.881Z,82.30
2019-04-21T02:20:08.146Z,82.70
2019-04-21T02:22:59.149Z,83.20
2019-04-21T02:25:21.780Z,83.80
2019-04-21T02:27:55.412Z,83.60
2019-04-21T02:30:33.523Z,84.00
2019-04-21T02:33:19.593Z,84.20
2019-04-21T02:38:11.957Z,84.40
2019-04-21T02:40:39.018Z,85.00
2019-04-21T02:45:38.192Z,85.20
2019-04-21T02:48:15.124Z,84.70
2019-04-21T02:50:37.648Z,84.80
2019-04-21T02:55:44.188Z,86.10
2019-04-21T02:58:41.681Z,86.70
2019-04-21T03:01:24.561Z,87.10
2019-04-21T03:03:51.290Z,86.60
2019-04-21T03:06:27.288Z,87.10
2019-04-21T03:11:17.122Z,87.40
2019-04-21T03:13:56.756Z,87.60
2019-04-21T03:23:57.535Z,88.40
2019-04-21T03:29:05.850Z,89.20
2019-04-21T03:36:52.743Z,90.00
2019-04-21T03:39:01.300Z,90.20
2019-04-21T03:41:40.315Z,90.20
2019-04-21T03:44:09.856Z,90.70
2019-04-21T03:46:41.387Z,90.70
2019-04-21T03:49:28.139Z,91.20
2019-04-21T03:51:47.866Z,91.50
2019-04-21T03:54:09.183Z,91.50
2019-04-21T04:01:55.743Z,92.20
2019-04-21T04:04:30.784Z,92.10
2019-04-21T04:07:11.153Z,92.20
2019-04-21T04:12:13.332Z,92.80
2019-04-21T04:17:19.653Z,92.90
2019-04-21T04:19:47.587Z,92.80
2019-04-21T04:22:31.394Z,93.10
2019-04-21T04:24:57.538Z,93.60
2019-04-21T04:27:53.505Z,94.10
2019-04-21T04:29:59.103Z,94.20
2019-04-21T04:32:30.662Z,94.40
2019-04-21T04:35:03.788Z,94.20
2019-04-21T04:37:45.033Z,94.20
2019-04-21T04:40:21.421Z,94.10
2019-04-21T04:47:59.142Z,94.00
2019-04-21T04:50:29.976Z,93.80
2019-04-21T04:53:14.063Z,93.80
2019-04-21T04:55:31.966Z,93.60
2019-04-21T05:02:55.950Z,93.70
2019-04-21T05:05:30.031Z,93.60
2019-04-21T05:10:38.505Z,93.30
2019-04-21T05:13:02.277Z,93.70
2019-04-21T05:15:42.089Z,93.50
2019-04-21T05:18:05.443Z,93.60
2019-04-21T05:20:37.977Z,93.60
2019-04-21T05:22:59.804Z,93.70
2019-04-21T05:25:30.717Z,93.90
2019-04-21T05:27:56.922Z,93.80
2019-04-21T05:30:40.460Z,93.40
2019-04-21T05:33:30.735Z,93.60
2019-04-21T05:35:57.246Z,93.70
2019-04-21T05:38:37.704Z,93.10
2019-04-21T05:41:05.129Z,93.20
2019-04-21T05:43:41.735Z,93.20
2019-04-21T05:46:13.384Z,93.10
2019-04-21T05:48:45.501Z,92.70
2019-04-21T05:51:18.086Z,93.20
2019-04-21T05:53:53.328Z,93.60
2019-04-21T05:56:27.680Z,93.20
2019-04-21T05:58:48.550Z,93.30
2019-04-21T06:04:01.723Z,93.10
2019-04-21T06:06:34.173Z,92.70
2019-04-21T06:08:59.459Z,92.50
2019-04-21T06:11:32.669Z,92.50
2019-04-21T06:14:01.403Z,92.50
2019-04-21T06:16:40.729Z,91.90
2019-04-21T06:19:25.504Z,92.20
2019-04-21T06:21:35.406Z,91.80
2019-04-21T06:24:06.803Z,91.90
2019-04-21T06:27:00.102Z,92.20
2019-04-21T06:29:09.747Z,92.10
2019-04-21T06:34:08.190Z,91.80
2019-04-21T06:36:56.760Z,91.60
2019-04-21T06:39:22.998Z,91.50
2019-04-21T06:41:55.701Z,91.80
2019-04-21T06:44:53.750Z,91.20
2019-04-21T06:47:24.659Z,90.60
2019-04-21T06:49:50.860Z,90.20
2019-04-21T06:52:43.527Z,90.40
2019-04-21T06:54:56.091Z,90.20
2019-04-21T06:57:26.014Z,90.10
2019-04-21T06:59:49.720Z,90.10
2019-04-21T07:04:56.073Z,89.30
2019-04-21T07:07:26.236Z,88.90
2019-04-21T07:10:01.440Z,89.20
2019-04-21T07:12:29.003Z,89.20
2019-04-21T07:14:58.947Z,88.10
2019-04-21T07:20:09.363Z,87.70
2019-04-21T07:22:40.240Z,88.00
2019-04-21T07:25:12.378Z,88.00
2019-04-21T07:27:35.258Z,86.50
2019-04-21T07:30:04.689Z,86.70
2019-04-21T07:32:40.020Z,89.40
2019-04-21T07:35:09.776Z,88.40
2019-04-21T07:37:45.723Z,87.10
2019-04-21T07:40:05.213Z,84.90
2019-04-21T07:42:49.759Z,84.00
2019-04-21T07:45:16.876Z,82.50
2019-04-21T07:47:59.269Z,81.20
2019-04-21T07:50:39.784Z,80.60
2019-04-21T07:53:16.320Z,80.60
2019-04-21T07:58:06.944Z,78.30
2019-04-21T08:03:14.137Z,76.40
2019-04-21T08:05:47.107Z,75.40
2019-04-21T08:08:13.376Z,73.70
2019-04-21T08:10:44.291Z,73.00
2019-04-21T08:13:25.690Z,72.50
2019-04-21T08:16:07.377Z,70.90
2019-04-21T08:18:23.251Z,69.00
2019-04-21T08:20:50.763Z,69.00
2019-04-21T08:23:25.359Z,68.90
2019-04-21T08:26:03.262Z,67.80
2019-04-21T08:28:26.423Z,67.10
2019-04-21T08:30:58.831Z,65.20
2019-04-21T08:33:33.734Z,65.00
2019-04-21T08:36:12.913Z,62.50
2019-04-21T08:38:27.787Z,62.10
2019-04-21T08:41:01.580Z,61.00
2019-04-21T08:43:44.651Z,60.80
2019-04-21T08:46:01.902Z,59.70
2019-04-21T08:48:36.550Z,60.40
2019-04-21T08:51:18.490Z,61.20
2019-04-21T08:53:41.112Z,63.50
2019-04-21T08:56:18.427Z,61.30
2019-04-21T08:58:54.867Z,59.80
2019-04-21T09:01:23.811Z,60.00
2019-04-21T09:04:04.255Z,59.00
2019-04-21T09:06:51.250Z,58.40
2019-04-21T09:09:03.595Z,58.00
2019-04-21T09:11:28.862Z,57.80
2019-04-21T09:14:07.113Z,56.60
2019-04-21T09:16:31.251Z,56.10
2019-04-21T09:18:59.781Z,56.70
2019-04-21T09:21:37.468Z,56.60
2019-04-21T09:24:13.398Z,53.90
2019-04-21T09:26:36.954Z,53.60
2019-04-21T09:29:05.939Z,53.30
2019-04-21T09:31:31.881Z,52.80
2019-04-21T09:33:59.344Z,52.00
2019-04-21T09:36:35.301Z,49.60
2019-04-21T09:39:06.932Z,50.60
2019-04-21T09:41:30.050Z,50.70
2019-04-21T09:44:01.683Z,52.20
2019-04-21T09:46:34.157Z,50.20
2019-04-21T09:49:05.912Z,49.10
2019-04-21T09:51:34.629Z,48.90
2019-04-21T09:54:09.830Z,48.60
2019-04-21T09:56:46.590Z,49.20
2019-04-21T09:59:12.211Z,49.50
2019-04-21T10:01:50.102Z,49.40
2019-04-21T10:04:09.880Z,46.20
2019-04-21T10:06:39.563Z,45.30
2019-04-21T10:09:14.166Z,41.90
2019-04-21T10:11:41.681Z,43.60
2019-04-21T10:14:11.764Z,43.00
2019-04-21T10:16:43.074Z,43.80
2019-04-21T10:19:13.176Z,42.80
2019-04-21T10:21:44.379Z,41.40
2019-04-21T10:24:13.838Z,39.20
2019-04-21T10:26:43.306Z,38.30
2019-04-21T10:29:19.781Z,39.10
2019-04-21T10:31:44.972Z,39.90
2019-04-21T10:34:14.477Z,39.60
2019-04-21T10:36:44.877Z,39.50
2019-04-21T10:39:15.736Z,40.10
2019-04-21T10:41:45.784Z,38.70
2019-04-21T10:44:16.939Z,38.00
2019-04-21T10:46:48.415Z,38.20
2019-04-21T10:49:18.894Z,38.10
2019-04-21T10:51:48.895Z,38.00
2019-04-21T10:54:19.988Z,37.70
2019-04-21T10:56:50.832Z,37.30
2019-04-21T10:59:20.662Z,36.10
2019-04-21T11:01:50.518Z,35.70
2019-04-21T11:04:27.212Z,33.80
2019-04-21T11:06:52.792Z,34.30
2019-04-21T11:09:22.201Z,35.90
2019-04-21T11:11:53.449Z,37.10
2019-04-21T11:14:23.190Z,37.00
2019-04-21T11:16:53.411Z,36.20
2019-04-21T11:19:24.247Z,36.30
2019-04-21T11:21:54.665Z,35.90
2019-04-21T11:24:25.019Z,35.30
2019-04-21T11:26:55.831Z,34.40
2019-04-21T11:29:26.340Z,35.20
2019-04-21T11:31:56.952Z,33.60
2019-04-21T11:34:27.309Z,34.50
2019-04-21T11:36:58.369Z,35.40
2019-04-21T11:39:37.607Z,34.70
2019-04-21T11:42:02.031Z,34.50
2019-04-21T11:44:31.370Z,34.30
2019-04-21T11:47:00.670Z,34.20
2019-04-21T11:49:32.265Z,34.70
2019-04-21T11:52:01.739Z,33.00
2019-04-21T11:54:32.898Z,33.70
2019-04-21T11:57:11.808Z,32.20
2019-04-21T11:59:33.664Z,32.40
2019-04-21T12:02:03.528Z,32.00
2019-04-21T12:04:33.674Z,32.50
2019-04-21T12:07:03.354Z,32.40
2019-04-21T12:09:33.314Z,31.30
2019-04-21T12:12:03.406Z,31.20
2019-04-21T12:14:34.186Z,30.70
2019-04-21T12:17:03.937Z,30.30
2019-04-21T12:19:34.617Z,30.60
2019-04-21T12:22:11.032Z,29.50
2019-04-21T12:24:38.122Z,29.50
2019-04-21T12:27:08.112Z,29.30
2019-04-21T12:29:37.787Z,27.90
2019-04-21T12:32:26.332Z,27.30
2019-04-21T12:34:57.715Z,26.50
2019-04-21T12:37:28.843Z,26.20
2019-04-21T12:39:58.962Z,26.20
2019-04-21T12:42:28.432Z,24.60
2019-04-21T12:44:57.754Z,23.10
2019-04-21T12:47:27.966Z,22.60
2019-04-21T12:49:59.023Z,22.30
2019-04-21T12:52:29.492Z,22.30
2019-04-21T12:54:59.678Z,22.50
2019-04-21T12:57:31.396Z,21.40
2019-04-21T13:00:00.659Z,21.90
2019-04-21T13:02:30.168Z,21.30
2019-04-21T13:05:02.051Z,22.20
2019-04-21T13:07:33.141Z,22.50
2019-04-21T13:10:02.643Z,21.20
2019-04-21T13:12:33.172Z,21.50
2019-04-21T13:15:04.232Z,21.80
2019-04-21T13:17:35.286Z,22.20
2019-04-21T13:20:07.835Z,21.90
2019-04-21T13:22:37.534Z,21.10
2019-04-21T13:25:08.147Z,21.30
2019-04-21T13:27:38.763Z,21.70
2019-04-21T13:30:13.071Z,21.00
2019-04-21T13:32:43.050Z,20.90
2019-04-21T13:35:12.956Z,21.10
2019-04-21T13:37:43.636Z,21.70
2019-04-21T13:40:40.267Z,21.60
2019-04-21T13:42:57.311Z,21.00
2019-04-21T13:45:25.800Z,21.60
2019-04-21T13:47:56.726Z,21.50
2019-04-21T13:50:26.078Z,21.50
2019-04-21T13:52:56.578Z,21.30
2019-04-21T13:55:27.446Z,21.90
2019-04-21T13:57:57.019Z,21.40
2019-04-21T14:00:27.503Z,21.20
2019-04-21T14:02:58.728Z,22.10
2019-04-21T14:05:28.691Z,21.90
2019-04-21T14:07:58.376Z,22.20
2019-04-21T14:10:28.946Z,22.30
2019-04-21T14:12:58.767Z,22.50
2019-04-21T14:15:32.414Z,23.10
2019-04-21T14:18:02.782Z,22.50
2019-04-21T14:20:33.411Z,23.20
2019-04-21T14:23:13.730Z,23.20
2019-04-21T14:25:35.359Z,22.80
2019-04-21T14:28:06.049Z,23.10
2019-04-21T14:30:36.524Z,23.20
2019-04-21T14:33:06.125Z,23.80
2019-04-21T14:35:36.693Z,23.30
2019-04-21T14:38:06.943Z,23.30
2019-04-21T14:40:38.504Z,23.50
2019-04-21T14:43:08.132Z,23.50
2019-04-21T14:45:54.746Z,23.30
2019-04-21T14:48:41.661Z,23.80
2019-04-21T14:51:29.362Z,24.30
2019-04-21T14:54:01.717Z,24.50
2019-04-21T14:56:31.485Z,24.90
2019-04-21T14:59:02.387Z,24.70
2019-04-21T15:01:32.038Z,24.60
2019-04-21T15:04:01.617Z,24.90
2019-04-21T15:06:31.538Z,24.50
2019-04-21T15:09:01.267Z,24.50
2019-04-21T15:11:31.925Z,24.90
2019-04-21T15:14:02.031Z,25.10
2019-04-21T15:16:32.892Z,25.10
2019-04-21T15:19:02.631Z,25.50
2019-04-21T15:21:33.342Z,25.60
2019-04-21T15:24:04.501Z,25.60
2019-04-21T15:26:34.074Z,26.20
2019-04-21T15:29:04.571Z,25.80
2019-04-21T15:31:39.197Z,26.70
2019-04-21T15:34:05.425Z,27.00
2019-04-21T15:36:35.274Z,26.80
2019-04-21T15:39:07.669Z,26.70
2019-04-21T15:41:38.476Z,26.70
2019-04-21T15:44:09.726Z,26.80
2019-04-21T15:46:39.925Z,27.60
2019-04-21T15:49:11.158Z,27.30
2019-04-21T15:51:42.060Z,27.40
2019-04-21T15:54:11.606Z,28.30
2019-04-21T15:56:42.908Z,27.70
2019-04-21T15:59:24.430Z,27.80
2019-04-21T16:01:58.869Z,28.10
2019-04-21T16:04:28.681Z,28.30
2019-04-21T16:06:59.491Z,28.20
2019-04-21T16:09:30.808Z,28.20
2019-04-21T16:12:01.800Z,28.30
2019-04-21T16:14:32.444Z,28.60
2019-04-21T16:17:03.315Z,29.00
2019-04-21T16:19:33.356Z,29.10
2019-04-21T16:22:06.315Z,29.70
2019-04-21T16:24:36.109Z,30.00
2019-04-21T16:27:08.495Z,30.10
2019-04-21T16:29:37.374Z,30.00
2019-04-21T16:32:07.029Z,30.20
2019-04-21T16:34:45.387Z,30.50
2019-04-21T16:37:07.791Z,30.50
2019-04-21T16:39:37.815Z,30.60
2019-04-21T16:42:08.486Z,31.10
2019-04-21T16:44:38.911Z,31.50
2019-04-21T16:47:09.695Z,31.50
2019-04-21T16:49:40.081Z,31.90
2019-04-21T16:52:18.304Z,31.90
2019-04-21T16:54:52.195Z,32.60
2019-04-21T16:57:23.867Z,33.00
2019-04-21T16:59:55.070Z,33.40
2019-04-21T17:02:24.860Z,33.40
2019-04-21T17:04:54.512Z,33.90
2019-04-21T17:07:24.149Z,34.30
2019-04-21T17:09:54.882Z,34.80
2019-04-21T17:12:26.307Z,34.80
2019-04-21T17:15:10.870Z,34.80
2019-04-21T17:17:51.406Z,34.50
2019-04-21T17:20:13.928Z,34.70
2019-04-21T17:22:29.031Z,35.10
2019-04-21T17:24:59.984Z,35.80
2019-04-21T17:27:31.201Z,36.20
2019-04-21T17:30:01.176Z,36.70
2019-04-21T17:32:35.660Z,37.40
2019-04-21T17:35:02.104Z,37.50
2019-04-21T17:37:32.412Z,38.00
2019-04-21T17:40:04.913Z,38.40
2019-04-21T17:42:39.756Z,39.10
2019-04-21T17:45:06.686Z,40.10
2019-04-21T17:47:44.823Z,39.90
2019-04-21T17:50:21.467Z,40.40
2019-04-21T17:53:07.206Z,41.10
2019-04-21T17:55:37.416Z,41.20
2019-04-21T17:58:21.696Z,41.50
2019-04-21T18:01:10.937Z,42.20
2019-04-21T18:03:45.709Z,42.20
2019-04-21T18:05:59.586Z,42.30
2019-04-21T18:08:37.109Z,42.80
2019-04-21T18:10:59.544Z,43.00
2019-04-21T18:13:21.083Z,43.60
2019-04-21T18:16:01.560Z,43.50
2019-04-21T18:18:20.962Z,43.40
2019-04-21T18:20:55.143Z,43.60
2019-04-21T18:23:44.349Z,43.90
2019-04-21T18:26:08.217Z,44.40
2019-04-21T18:28:33.030Z,44.50
2019-04-21T18:31:04.675Z,44.70
2019-04-21T18:33:40.291Z,45.00
2019-04-21T18:36:31.720Z,45.40
2019-04-21T18:39:12.679Z,45.40
2019-04-21T18:41:42.744Z,45.20
2019-04-21T18:44:44.406Z,45.30
2019-04-21T18:47:09.633Z,45.90
2019-04-21T18:49:40.351Z,46.00
2019-04-21T18:52:20.301Z,46.20
2019-04-21T18:54:56.137Z,47.40
2019-04-21T18:57:24.337Z,47.60
2019-04-21T18:59:45.529Z,48.00
2019-04-21T19:02:18.078Z,48.20
2019-04-21T19:04:46.859Z,49.10
2019-04-21T19:07:28.389Z,49.40
2019-04-21T19:12:50.710Z,49.90
2019-04-21T19:15:04.591Z,50.20
2019-04-21T19:20:18.106Z,50.50
2019-04-21T19:22:35.988Z,50.70
2019-04-21T19:25:15.384Z,51.00
2019-04-21T19:27:43.959Z,51.10
2019-04-21T19:30:20.171Z,51.30
2019-04-21T19:32:46.666Z,51.50
2019-04-21T19:35:01.879Z,52.00
2019-04-21T19:37:41.063Z,51.80
2019-04-21T19:40:10.581Z,52.10
2019-04-21T19:42:42.625Z,52.70
2019-04-21T19:45:19.068Z,53.30
2019-04-21T19:47:55.885Z,53.20
2019-04-21T19:50:28.731Z,53.40
2019-04-21T19:52:49.739Z,53.70
2019-04-21T19:55:12.060Z,54.20
2019-04-21T19:57:43.052Z,54.30
2019-04-21T20:00:15.995Z,54.90
2019-04-21T20:02:45.543Z,55.00
2019-04-21T20:05:24.164Z,55.20
2019-04-21T20:08:03.635Z,55.60
2019-04-21T20:10:42.617Z,56.00
2019-04-21T20:13:08.635Z,55.80
2019-04-21T20:15:42.146Z,56.00
2019-04-21T20:18:04.803Z,56.20
2019-04-21T20:20:21.989Z,56.60
2019-04-21T20:22:53.418Z,57.10
2019-04-21T20:25:23.697Z,57.50
2019-04-21T20:28:01.354Z,57.80
2019-04-21T20:30:42.403Z,58.10
2019-04-21T20:33:36.886Z,58.20
2019-04-21T20:35:51.930Z,58.50
2019-04-21T20:38:12.587Z,59.20
2019-04-21T20:40:42.205Z,59.40
2019-04-21T20:43:25.088Z,59.30
2019-04-21T20:45:52.701Z,59.90
2019-04-21T20:48:14.009Z,59.90
2019-04-21T20:50:49.261Z,60.30
2019-04-21T20:53:24.923Z,61.20
2019-04-21T20:55:48.674Z,61.80
2019-04-21T20:58:23.682Z,61.50
2019-04-21T21:01:06.091Z,62.10
2019-04-21T21:03:28.838Z,62.50
2019-04-21T21:05:57.388Z,63.00
2019-04-21T21:08:32.719Z,64.30
2019-04-21T21:10:55.166Z,63.90
2019-04-21T21:13:41.024Z,64.70
2019-04-21T21:16:10.248Z,65.50
2019-04-21T21:21:07.870Z,65.00
2019-04-21T21:23:39.464Z,66.20
2019-04-21T21:26:09.994Z,66.70
2019-04-21T21:28:37.475Z,65.10
2019-04-21T21:31:13.224Z,66.80
2019-04-21T21:33:54.229Z,66.40
2019-04-21T21:36:13.451Z,64.80
2019-04-21T21:38:43.350Z,65.50
2019-04-21T21:41:07.639Z,66.40
2019-04-21T21:43:30.614Z,66.20
2019-04-21T21:46:04.824Z,66.70
2019-04-21T21:48:44.965Z,67.20
2019-04-21T21:51:10.754Z,67.10
2019-04-21T21:53:35.889Z,66.70
2019-04-21T21:56:06.822Z,67.00
2019-04-21T21:58:40.326Z,67.10
2019-04-21T22:01:08.752Z,67.30
2019-04-21T22:03:44.433Z,67.60
2019-04-21T22:06:15.500Z,68.20
2019-04-21T22:08:42.543Z,68.10
2019-04-21T22:11:12.115Z,67.90
2019-04-21T22:13:47.612Z,68.90
2019-04-21T22:16:15.697Z,68.80
2019-04-21T22:19:04.745Z,68.80
2019-04-21T22:21:36.523Z,68.80
2019-04-21T22:23:57.055Z,68.90
2019-04-21T22:26:17.119Z,69.60
2019-04-21T22:28:47.592Z,69.90
2019-04-21T22:31:22.588Z,70.10
2019-04-21T22:33:54.759Z,70.80
2019-04-21T22:36:33.143Z,71.00
2019-04-21T22:39:08.996Z,71.20
2019-04-21T22:41:30.279Z,71.10
2019-04-21T22:43:54.235Z,70.80
2019-04-21T22:46:24.511Z,71.60
2019-04-21T22:48:59.726Z,71.50
2019-04-21T22:51:35.354Z,71.60
2019-04-21T22:53:59.219Z,71.50
2019-04-21T22:56:32.084Z,71.60
2019-04-21T22:58:59.015Z,72.00
2019-04-21T23:01:34.997Z,73.00
2019-04-21T23:04:02.791Z,73.60
2019-04-21T23:06:34.311Z,73.50
2019-04-21T23:09:02.557Z,72.60
2019-04-21T23:11:37.513Z,72.70
2019-04-21T23:14:06.614Z,73.20
2019-04-21T23:16:38.039Z,74.30
2019-04-21T23:19:22.854Z,73.80
2019-04-21T23:21:59.637Z,74.10
2019-04-21T23:24:31.754Z,74.50
2019-04-21T23:26:51.707Z,75.00
2019-04-21T23:29:39.345Z,76.30
2019-04-21T23:31:59.236Z,77.10
2019-04-21T23:34:19.636Z,77.20
2019-04-21T23:36:54.797Z,76.80
2019-04-21T23:39:22.757Z,77.20
2019-04-21T23:41:51.185Z,77.40
2019-04-21T23:44:19.030Z,77.30
2019-04-21T23:46:54.867Z,77.50
2019-04-21T23:49:34.595Z,77.50
2019-04-21T23:51:58.034Z,77.60
2019-04-21T23:54:23.025Z,78.20
2019-04-21T23:56:53.860Z,78.40
2019-04-21T23:59:24.817Z,78.60
